createdAt,value
2023-05-09T00:00:39.728Z,6.00
2023-05-09T00:05:42.665Z,5.67
2023-05-09T00:10:46.919Z,5.80
2023-05-09T00:15:49.803Z,6.70
2023-05-09T00:20:52.887Z,6.40
2023-05-09T00:25:57.279Z,5.53
2023-05-09T00:31:00.265Z,5.67
2023-05-09T00:36:03.165Z,6.23
2023-05-09T00:41:07.546Z,5.90
2023-05-09T00:46:10.582Z,5.90
2023-05-09T00:51:13.549Z,6.20
2023-05-09T00:56:18.503Z,5.47
2023-05-09T01:01:21.483Z,5.20
2023-05-09T01:06:39.726Z,5.33
2023-05-09T01:11:50.114Z,5.30
2023-05-09T01:16:59.580Z,5.90
2023-05-09T01:22:04.629Z,5.37
2023-05-09T01:27:22.214Z,5.70
2023-05-09T01:32:29.743Z,5.50
2023-05-09T01:37:35.019Z,5.53
2023-05-09T01:42:43.594Z,5.63
2023-05-09T01:47:50.078Z,5.10
2023-05-09T01:52:57.512Z,5.10
2023-05-09T01:58:00.947Z,4.83
2023-05-09T02:03:05.953Z,5.23
2023-05-09T02:08:09.627Z,4.90
2023-05-09T02:13:12.743Z,5.20
2023-05-09T02:18:17.323Z,5.10
2023-05-09T02:23:20.907Z,5.10
2023-05-09T02:28:24.896Z,4.70
2023-05-09T02:33:29.885Z,4.80
2023-05-09T02:38:33.368Z,4.57
2023-05-09T02:43:38.325Z,4.23
2023-05-09T02:48:43.063Z,4.97
2023-05-09T02:53:46.003Z,4.90
2023-05-09T02:58:51.477Z,4.40
2023-05-09T03:03:55.930Z,5.27
2023-05-09T03:08:59.322Z,4.97
2023-05-09T03:14:02.466Z,5.10
2023-05-09T03:19:07.222Z,5.37
2023-05-09T03:24:11.788Z,5.10
2023-05-09T03:29:14.753Z,5.77
2023-05-09T03:34:19.129Z,5.27
2023-05-09T03:39:22.281Z,4.90
2023-05-09T03:44:30.160Z,5.00
2023-05-09T03:49:34.471Z,5.50
2023-05-09T03:54:37.430Z,5.23
2023-05-09T03:59:40.667Z,5.60
2023-05-09T04:04:46.618Z,5.43
2023-05-09T04:09:50.315Z,5.40
2023-05-09T04:14:53.458Z,6.63
2023-05-09T04:19:58.641Z,5.90
2023-05-09T04:25:02.025Z,5.60
2023-05-09T04:30:06.328Z,4.43
2023-05-09T04:35:11.891Z,6.10
2023-05-09T04:40:18.491Z,5.10
2023-05-09T04:45:31.857Z,4.30
2023-05-09T04:50:37.675Z,3.80
2023-05-09T04:55:40.593Z,4.10
2023-05-09T05:00:43.978Z,4.30
2023-05-09T05:05:48.483Z,3.93
2023-05-09T05:10:51.856Z,4.80
2023-05-09T05:15:56.380Z,5.87
2023-05-09T05:21:00.705Z,4.03
2023-05-09T05:26:03.813Z,5.13
2023-05-09T05:31:08.676Z,4.10
2023-05-09T05:36:12.968Z,3.30
2023-05-09T05:41:16.072Z,4.10
2023-05-09T05:46:21.593Z,4.17
2023-05-09T05:51:26.205Z,3.90
2023-05-09T05:56:29.628Z,3.50
2023-05-09T06:01:33.456Z,4.07
2023-05-09T06:06:37.996Z,3.90
2023-05-09T06:11:41.045Z,4.17
2023-05-09T06:16:44.272Z,3.87
2023-05-09T06:21:48.629Z,3.77
2023-05-09T06:26:51.768Z,4.00
2023-05-09T06:31:54.827Z,3.60
2023-05-09T06:36:59.146Z,3.63
2023-05-09T06:42:02.064Z,3.90
2023-05-09T06:47:10.154Z,4.13
2023-05-09T06:52:15.785Z,3.93
2023-05-09T06:57:18.754Z,4.20
2023-05-09T07:02:21.651Z,3.87
2023-05-09T07:07:25.882Z,4.43
2023-05-09T07:25:32.095Z,3.90
2023-05-09T07:30:35.045Z,3.73
2023-05-09T07:35:37.903Z,4.40
2023-05-09T07:40:42.138Z,4.27
2023-05-09T07:45:45.109Z,4.70
2023-05-09T07:50:48.050Z,3.97
2023-05-09T07:55:52.271Z,4.03
2023-05-09T08:00:57.119Z,3.70
2023-05-09T08:18:33.033Z,4.47
2023-05-09T08:23:36.031Z,3.80
2023-05-09T08:28:38.903Z,4.47
2023-05-09T08:33:43.166Z,4.07
2023-05-09T08:38:46.027Z,4.67
2023-05-09T08:43:50.260Z,4.13
2023-05-09T08:48:55.295Z,4.00
2023-05-09T08:53:58.695Z,4.23
2023-05-09T09:06:11.376Z,3.97
2023-05-09T09:11:16.005Z,3.57
2023-05-09T09:16:21.868Z,4.00
2023-05-09T09:21:26.278Z,4.30
2023-05-09T09:26:31.714Z,3.90
2023-05-09T09:31:34.841Z,3.97
2023-05-09T09:36:39.140Z,4.03
2023-05-09T09:41:43.798Z,3.83
2023-05-09T09:46:48.878Z,4.57
2023-05-09T09:51:54.884Z,3.80
2023-05-09T09:56:57.813Z,3.77
2023-05-09T10:02:04.178Z,4.13
2023-05-09T10:07:14.823Z,3.60
2023-05-09T10:12:20.094Z,3.97
2023-05-09T10:17:24.727Z,4.10
2023-05-09T10:22:30.998Z,3.90
2023-05-09T10:27:37.439Z,4.17
2023-05-09T10:32:44.526Z,4.60
2023-05-09T10:37:49.708Z,3.37
2023-05-09T10:42:52.645Z,3.90
2023-05-09T10:47:57.437Z,4.00
2023-05-09T10:53:11.102Z,3.70
2023-05-09T10:58:26.269Z,3.57
2023-05-09T11:03:31.025Z,4.47
2023-05-09T11:08:35.483Z,3.47
2023-05-09T11:13:39.075Z,3.57
2023-05-09T11:18:53.164Z,3.50
2023-05-09T11:23:57.440Z,3.30
2023-05-09T11:29:02.780Z,3.40
2023-05-09T11:34:06.744Z,3.77
2023-05-09T11:39:12.447Z,3.13
2023-05-09T11:44:19.662Z,3.43
2023-05-09T11:49:22.581Z,3.20
2023-05-09T11:54:26.891Z,3.10
2023-05-09T11:59:29.822Z,3.30
2023-05-09T12:04:33.267Z,3.10
2023-05-09T12:09:38.679Z,3.30
2023-05-09T12:14:42.615Z,2.90
2023-05-09T12:19:45.643Z,3.23
2023-05-09T12:24:50.587Z,3.50
2023-05-09T12:29:55.089Z,2.87
2023-05-09T12:34:58.049Z,2.77
2023-05-09T12:40:07.542Z,3.60
2023-05-09T12:45:11.621Z,3.30
2023-05-09T12:50:14.622Z,3.70
2023-05-09T12:55:20.017Z,2.93
2023-05-09T13:00:43.662Z,3.40
2023-05-09T13:05:55.339Z,3.27
2023-05-09T13:11:12.000Z,3.70
2023-05-09T13:16:18.330Z,3.70
2023-05-09T13:21:21.321Z,4.17
2023-05-09T13:26:27.063Z,3.17
2023-05-09T13:31:29.970Z,3.80
2023-05-09T13:36:32.983Z,4.17
2023-05-09T13:41:38.210Z,4.20
2023-05-09T13:46:41.437Z,3.70
2023-05-09T13:51:45.280Z,4.70
2023-05-09T13:56:51.248Z,3.47
2023-05-09T14:01:54.610Z,3.70
2023-05-09T14:06:58.244Z,3.87
2023-05-09T14:12:02.631Z,3.67
2023-05-09T14:17:05.526Z,4.43
2023-05-09T14:22:08.825Z,3.80
2023-05-09T14:27:13.115Z,3.90
2023-05-09T14:32:16.120Z,4.17
2023-05-09T14:37:19.031Z,3.97
2023-05-09T14:42:23.338Z,4.10
2023-05-09T14:47:26.363Z,4.07
2023-05-09T14:52:29.638Z,3.90
2023-05-09T14:57:34.373Z,4.30
2023-05-09T15:02:37.376Z,4.47
2023-05-09T15:07:40.477Z,4.47
2023-05-09T15:12:45.129Z,4.00
2023-05-09T15:17:48.388Z,4.03
2023-05-09T15:22:51.729Z,4.80
2023-05-09T15:27:56.727Z,4.80
2023-05-09T15:32:59.972Z,4.47
2023-05-09T15:38:02.975Z,3.90
2023-05-09T15:43:08.576Z,4.40
2023-05-09T15:48:15.110Z,4.50
2023-05-09T15:53:17.961Z,4.00
2023-05-09T15:58:22.260Z,4.90
2023-05-09T16:03:25.943Z,4.30
2023-05-09T16:08:28.915Z,4.50
2023-05-09T16:13:35.712Z,5.20
2023-05-09T16:18:39.114Z,4.77
2023-05-09T16:23:42.161Z,4.90
2023-05-09T16:28:46.442Z,4.53
2023-05-09T16:33:49.394Z,4.37
2023-05-09T16:38:52.533Z,4.17
2023-05-09T16:43:57.296Z,4.50
2023-05-09T16:49:01.342Z,4.13
2023-05-09T16:54:04.743Z,4.10
2023-05-09T16:59:09.172Z,4.40
2023-05-09T17:04:12.176Z,4.00
2023-05-09T17:09:15.301Z,4.20
2023-05-09T17:14:19.880Z,4.03
2023-05-09T17:19:23.742Z,4.10
2023-05-09T17:24:26.842Z,3.77
2023-05-09T17:29:31.170Z,3.70
2023-05-09T17:34:34.143Z,3.90
2023-05-09T17:39:37.789Z,3.70
2023-05-09T17:44:44.184Z,3.93
2023-05-09T17:49:47.360Z,3.80
2023-05-09T17:54:50.257Z,3.70
2023-05-09T17:59:54.571Z,4.30
2023-05-09T18:04:57.531Z,4.00
2023-05-09T18:10:00.440Z,3.53
2023-05-09T18:15:05.256Z,3.73
2023-05-09T18:20:09.653Z,4.13
2023-05-09T18:25:12.584Z,4.10
2023-05-09T18:30:17.494Z,4.23
2023-05-09T18:35:20.705Z,3.90
2023-05-09T18:40:23.645Z,3.70
2023-05-09T18:45:28.041Z,3.93
2023-05-09T18:50:31.475Z,3.40
2023-05-09T18:55:34.500Z,3.73
2023-05-09T19:00:39.455Z,3.80
2023-05-09T19:05:42.956Z,3.60
2023-05-09T19:10:45.949Z,3.90
2023-05-09T19:15:50.326Z,4.10
2023-05-09T19:20:53.296Z,3.93
2023-05-09T19:25:56.781Z,3.40
2023-05-09T19:31:01.114Z,3.57
2023-05-09T19:36:04.243Z,3.40
2023-05-09T19:41:07.209Z,3.80
2023-05-09T19:46:11.647Z,3.40
2023-05-09T19:51:15.480Z,4.10
2023-05-09T19:56:18.378Z,4.10
2023-05-09T20:01:22.708Z,3.60
2023-05-09T20:06:25.813Z,4.17
2023-05-09T20:11:28.769Z,4.23
2023-05-09T20:16:33.090Z,4.30
2023-05-09T20:21:36.416Z,3.90
2023-05-09T20:26:39.347Z,4.20
2023-05-09T20:31:44.482Z,3.80
2023-05-09T20:36:49.188Z,4.63
2023-05-09T20:41:52.478Z,3.87
2023-05-09T20:46:56.756Z,3.93
2023-05-09T20:51:59.850Z,3.63
2023-05-09T20:57:02.732Z,3.63
2023-05-09T21:02:07.020Z,3.93
2023-05-09T21:07:11.976Z,3.70
2023-05-09T21:12:14.907Z,4.30
2023-05-09T21:17:19.493Z,3.80
2023-05-09T21:22:22.435Z,3.40
2023-05-09T21:27:25.395Z,3.57
2023-05-09T21:32:29.750Z,3.90
2023-05-09T21:37:32.723Z,3.70
2023-05-09T21:42:37.358Z,3.57
2023-05-09T21:47:41.819Z,3.60
2023-05-09T21:52:44.864Z,3.50
2023-05-09T21:57:47.753Z,3.40
2023-05-09T22:02:52.072Z,3.60
2023-05-09T22:07:55.028Z,3.40
2023-05-09T22:12:58.279Z,3.70
2023-05-09T22:18:02.723Z,3.40
2023-05-09T22:23:05.615Z,3.40
2023-05-09T22:28:09.215Z,3.80
2023-05-09T22:33:13.661Z,3.73
2023-05-09T22:38:16.623Z,3.80
2023-05-09T22:43:20.239Z,3.43
2023-05-09T22:48:24.574Z,3.67
2023-05-09T22:53:28.145Z,3.80
2023-05-09T22:58:31.108Z,3.47
2023-05-09T23:03:35.488Z,3.50
2023-05-09T23:08:38.425Z,3.57
2023-05-09T23:13:41.350Z,3.50
2023-05-09T23:18:45.604Z,3.30
2023-05-09T23:23:48.529Z,3.70
2023-05-09T23:28:51.845Z,3.10
2023-05-09T23:33:56.221Z,4.00
2023-05-09T23:38:59.149Z,3.90
2023-05-09T23:44:03.453Z,3.77
2023-05-09T23:49:07.901Z,3.57
2023-05-09T23:54:11.116Z,3.33
2023-05-09T23:59:14.028Z,3.50
